.
WxDataArchive / Data Records for 2006-02-17
2006-02-16 February 2006 2006-02-18

Data Records for Friday, 17 February 2006

Time	Temp	Chill	HIndex	Humid	Dewpt	 Wind 	HiWind	WindDir	Rain 	Barom 
-----	----	-----	------	-----	-----	------	------	-------	-----	----- 
00:00	39.1	34.7	39.1	87	35.6	6	12	270	0.00	29.723 
00:05	38.8	34.3	38.8	88	35.6	6	17	270	0.00	29.723 
00:10	38.5	34.0	38.5	88	35.3	6	16	270	0.00	29.723 
00:15	38.2	35.2	38.2	89	35.2	4	11	292	0.00	29.734 
00:20	37.9	34.9	37.9	90	35.2	4	10	270	0.00	29.734 
00:25	37.5	33.5	37.5	88	34.3	5	15	270	0.00	29.734 
00:30	37.0	32.2	37.0	87	33.5	6	12	270	0.00	29.758 
00:35	36.6	31.0	36.6	86	32.8	7	13	270	0.00	29.758 
00:40	36.2	31.2	36.2	85	32.1	6	14	270	0.00	29.758 
00:45	35.9	31.7	35.9	86	32.1	5	13	270	0.00	29.768 
00:50	35.8	32.5	35.8	87	32.3	4	9	270	0.00	29.768 
00:55	35.5	30.4	35.5	86	31.7	6	13	270	0.00	29.768 
01:00	34.9	29.7	34.9	84	30.6	6	14	270	0.00	29.790 
01:05	34.4	28.4	34.4	84	30.1	7	14	270	0.00	29.790 
01:10	34.1	29.5	34.1	83	29.5	5	14	270	0.00	29.790 
01:15	34.0	28.6	34.0	82	29.1	6	15	270	0.00	29.816 
01:20	33.8	28.4	33.8	81	28.6	6	12	270	0.00	29.816 
01:25	33.7	28.3	33.7	81	28.5	6	11	270	0.00	29.816 
01:30	33.5	28.0	33.5	81	28.3	6	17	270	0.00	29.834 
01:35	33.4	26.6	33.4	80	27.9	8	18	270	0.00	29.834 
01:40	32.9	26.6	32.9	81	27.7	7	14	270	0.00	29.834 
01:45	32.7	25.1	32.7	81	27.5	9	20	270	0.00	29.859 
01:50	32.5	26.8	32.5	82	27.6	6	13	270	0.00	29.859 
01:55	32.4	26.0	32.4	81	27.2	7	15	270	0.00	29.859 
02:00	32.4	26.7	32.4	80	26.9	6	12	270	0.00	29.883 
02:05	32.2	27.3	32.2	80	26.7	5	12	292	0.00	29.883 
02:10	32.2	26.5	32.2	78	26.1	6	15	270	0.00	29.883 
02:15	32.1	27.2	32.1	78	26.0	5	14	270	0.00	29.911 
02:20	32.1	26.3	32.1	77	25.7	6	20	270	0.00	29.911 
02:25	32.1	25.6	32.1	76	25.4	7	14	292	0.00	29.911 
02:30	31.9	26.1	31.9	77	25.5	6	17	270	0.00	29.927 
02:35	31.8	26.0	31.8	77	25.4	6	19	315	0.00	29.927 
02:40	31.8	26.8	31.8	78	25.7	5	12	270	0.00	29.927 
02:45	31.6	25.8	31.6	79	25.8	6	14	270	0.00	29.945 
02:50	31.5	26.5	31.5	77	25.1	5	14	270	0.00	29.945 
02:55	31.2	26.1	31.2	79	25.5	5	11	270	0.00	29.945 
03:00	31.0	26.9	31.0	77	24.7	4	12	270	0.00	29.961 
03:05	30.9	25.8	30.9	78	24.9	5	12	270	0.00	29.961 
03:10	30.7	25.5	30.7	77	24.4	5	10	270	0.00	29.961 
03:15	30.7	26.6	30.7	75	23.7	4	11	270	0.00	29.983 
03:20	30.6	26.5	30.6	76	24.0	4	12	338	0.00	29.983 
03:25	30.4	24.3	30.4	74	23.1	6	14	270	0.00	29.983 
03:30	30.3	24.2	30.3	74	23.0	6	17	270	0.00	30.010 
03:35	30.1	24.0	30.1	74	22.8	6	14	270	0.00	30.010 
03:40	29.8	22.2	29.8	73	22.2	8	16	270	0.00	30.010 
03:45	29.7	23.5	29.7	75	22.8	6	20	270	0.00	30.028 
03:50	29.5	24.1	29.5	75	22.6	5	13	270	0.00	30.028 
03:55	29.4	23.1	29.4	75	22.5	6	13	292	0.00	30.028 
04:00	29.4	22.4	29.4	73	21.8	7	17	292	0.00	30.045 
04:05	29.4	24.0	29.4	73	21.8	5	11	292	0.00	30.045 
04:10	29.3	23.0	29.3	70	20.8	6	17	270	0.00	30.045 
04:15	29.3	23.9	29.3	72	21.4	5	11	292	0.00	30.072 
04:20	29.1	23.7	29.1	72	21.2	5	12	270	0.00	30.072 
04:25	28.8	23.3	28.8	71	20.6	5	15	270	0.00	30.072 
04:30	28.7	22.3	28.7	70	20.2	6	14	270	0.00	30.087 
04:35	28.7	22.3	28.7	70	20.2	6	19	270	0.00	30.087 
04:40	28.5	22.1	28.5	70	20.0	6	13	292	0.00	30.087 
04:45	28.4	21.9	28.4	70	19.9	6	12	315	0.00	30.105 
04:50	28.4	22.8	28.4	71	20.2	5	15	315	0.00	30.105 
04:55	28.2	22.6	28.2	73	20.7	5	12	270	0.00	30.105 
05:00	28.1	22.5	28.1	72	20.3	5	11	270	0.00	30.121 
05:05	27.9	22.3	27.9	72	20.1	5	11	292	0.00	30.121 
05:10	27.8	22.1	27.8	70	19.3	5	16	315	0.00	30.121 
05:15	27.8	21.2	27.8	69	19.0	6	13	270	0.00	30.138 
05:20	27.6	21.9	27.6	71	19.4	5	14	315	0.00	30.138 
05:25	27.6	23.0	27.6	72	19.8	4	13	315	0.00	30.138 
05:30	27.5	20.9	27.5	70	19.0	6	16	270	0.00	30.165 
05:35	27.5	20.9	27.5	69	18.7	6	13	315	0.00	30.165 
05:40	27.3	21.6	27.3	70	18.8	5	15	270	0.00	30.165 
05:45	27.3	21.6	27.3	71	19.2	5	15	292	0.00	30.184 
05:50	27.2	22.5	27.2	72	19.4	4	10	270	0.00	30.184 
05:55	27.2	21.4	27.2	70	18.7	5	12	338	0.00	30.184 
06:00	27.2	27.2	27.2	70	18.7	3	7	270	0.00	30.201 
06:05	27.2	22.5	27.2	70	18.7	4	7	338	0.00	30.201 
06:10	27.0	22.3	27.0	69	18.2	4	8	270	0.00	30.201 
06:15	27.0	22.3	27.0	70	18.5	4	10	292	0.00	30.219 
06:20	26.9	22.2	26.9	69	18.1	4	8	292	0.00	30.219 
06:25	26.9	22.2	26.9	71	18.8	4	12	292	0.00	30.219 
06:30	26.7	26.7	26.7	72	18.9	3	8	315	0.00	30.228 
06:35	26.6	21.8	26.6	72	18.8	4	10	270	0.00	30.228 
06:40	26.6	26.6	26.6	73	19.1	3	10	315	0.00	30.228 
06:45	26.6	21.8	26.6	73	19.1	4	9	292	0.00	30.246 
06:50	26.6	21.8	26.6	70	18.2	4	10	270	0.00	30.246 
06:55	26.6	21.8	26.6	68	17.5	4	10	270	0.00	30.246 
07:00	26.4	21.6	26.4	67	17.0	4	9	270	0.00	30.265 
07:05	26.4	21.6	26.4	71	18.3	4	9	270	0.00	30.265 
07:10	26.3	21.5	26.3	73	18.8	4	13	315	0.00	30.265 
07:15	26.1	26.1	26.1	72	18.3	3	9	270	0.00	30.280 
07:20	26.1	26.1	26.1	71	18.0	3	7	270	0.00	30.280 
07:25	26.1	21.3	26.1	71	18.0	4	10	315	0.00	30.280 
07:30	26.0	21.1	26.0	70	17.6	4	10	292	0.00	30.296 
07:35	25.8	19.8	25.8	69	17.1	5	14	315	0.00	30.296 
07:40	25.7	25.7	25.7	68	16.6	3	6	292	0.00	30.296 
07:45	25.6	25.6	25.6	68	16.5	3	10	270	0.00	30.302 
07:50	25.4	25.4	25.4	66	15.7	3	11	270	0.00	30.302 
07:55	25.3	25.3	25.3	65	15.2	2	10	270	0.00	30.302 
08:00	25.1	20.1	25.1	65	15.0	4	10	292	0.00	30.319 
08:05	25.1	20.1	25.1	65	15.0	4	11	292	0.00	30.319 
08:10	25.1	25.1	25.1	65	15.0	3	10	292	0.00	30.319 
08:15	25.1	25.1	25.1	66	15.4	3	10	292	0.00	30.338 
08:20	25.0	18.9	25.0	65	14.9	5	13	270	0.00	30.338 
08:25	25.0	18.9	25.0	64	14.6	5	12	315	0.00	30.338 
08:30	25.1	19.0	25.1	64	14.7	5	14	292	0.00	30.347 
08:35	25.3	25.3	25.3	66	15.6	3	10	292	0.00	30.347 
08:40	25.3	25.3	25.3	68	16.2	2	9	292	0.00	30.347 
08:45	25.4	20.5	25.4	64	14.9	4	12	292	0.00	30.354 
08:50	25.7	20.8	25.7	64	15.2	4	13	315	0.00	30.354 
08:55	25.8	20.9	25.8	63	15.0	4	12	315	0.00	30.354 
09:00	26.0	21.1	26.0	65	15.9	4	13	292	0.00	30.360 
09:05	25.8	19.8	25.8	64	15.3	5	12	270	0.00	30.360 
09:10	25.8	19.8	25.8	63	15.0	5	12	315	0.00	30.360 
09:15	25.6	20.7	25.6	63	14.8	4	11	315	0.00	30.361 
09:20	25.4	19.3	25.4	64	14.9	5	10	315	0.00	30.361 
09:25	25.6	19.6	25.6	64	15.1	5	13	315	0.00	30.361 
09:30	25.6	25.6	25.6	64	15.1	3	10	292	0.00	30.362 
09:35	25.6	20.7	25.6	65	15.5	4	9	292	0.00	30.362 
09:40	25.7	25.7	25.7	65	15.6	3	9	292	0.00	30.362 
09:45	25.7	20.8	25.7	64	15.2	4	11	338	0.00	30.360 
09:50	25.7	25.7	25.7	64	15.2	3	9	338	0.00	30.360 
09:55	26.0	26.0	26.0	62	14.8	3	10	315	0.00	30.360 
10:00	26.3	26.3	26.3	61	14.7	3	9	315	0.00	30.362 
10:05	26.7	26.7	26.7	59	14.3	3	10	338	0.00	30.362 
10:10	27.0	22.3	27.0	59	14.6	4	12	315	0.00	30.362 
10:15	26.7	22.0	26.7	61	15.1	4	10	292	0.00	30.374 
10:20	26.3	26.3	26.3	62	15.1	3	8	315	0.00	30.374 
10:25	26.3	26.3	26.3	62	15.1	2	6	315	0.00	30.374 
10:30	26.4	26.4	26.4	62	15.2	2	6	338	0.00	30.379 
10:35	26.4	21.6	26.4	64	15.9	4	12	338	0.00	30.379 
10:40	26.1	26.1	26.1	62	14.9	3	7	292	0.00	30.379 
10:45	26.9	26.9	26.9	62	15.6	3	6	315	0.00	30.382 
10:50	27.0	27.0	27.0	61	15.4	3	6	292	0.00	30.382 
10:55	27.3	27.3	27.3	61	15.7	2	7	315	0.00	30.382 
11:00	27.6	27.6	27.6	59	15.2	3	7	315	0.00	30.396 
11:05	28.4	28.4	28.4	60	16.3	3	9	315	0.00	30.396 
11:10	28.5	28.5	28.5	58	15.6	3	6	338	0.00	30.396 
11:15	28.1	28.1	28.1	59	15.6	2	6	338	0.00	30.410 
11:20	27.9	27.9	27.9	62	16.6	3	6	292	0.00	30.410 
11:25	28.1	28.1	28.1	60	16.0	3	7	315	0.00	30.410 
11:30	28.1	28.1	28.1	59	15.6	2	6	270	0.00	30.423 
11:35	27.6	27.6	27.6	59	15.2	3	8	292	0.00	30.423 
11:40	27.5	27.5	27.5	61	15.8	2	7	315	0.00	30.423 
11:45	27.6	23.0	27.6	57	14.4	4	10	292	0.00	30.423 
11:50	27.6	27.6	27.6	58	14.8	2	5	0	0.00	30.423 
11:55	27.8	27.8	27.8	58	15.0	2	9	292	0.00	30.423 
12:00	28.1	28.1	28.1	58	15.3	2	5	292	0.00	30.422 
12:05	28.2	28.2	28.2	56	14.5	3	7	338	0.00	30.422 
12:10	27.8	27.8	27.8	58	15.0	3	6	338	0.00	30.422 
12:15	27.9	27.9	27.9	56	14.3	3	7	315	0.00	30.427 
12:20	27.9	27.9	27.9	55	13.9	3	7	292	0.00	30.427 
12:25	29.0	29.0	29.0	55	14.9	2	5	292	0.00	30.427 
12:30	29.3	29.3	29.3	55	15.2	2	7	270	0.00	30.426 
12:35	29.1	29.1	29.1	54	14.6	3	7	270	0.00	30.426 
12:40	28.5	28.5	28.5	56	14.8	2	6	0	0.00	30.426 
12:45	28.7	28.7	28.7	58	15.8	2	5	338	0.00	30.422 
12:50	29.0	29.0	29.0	55	14.9	2	7	315	0.00	30.422 
12:55	29.0	29.0	29.0	54	14.5	2	7	315	0.00	30.422 
13:00	29.1	29.1	29.1	53	14.1	2	4	0	0.00	30.425 
13:05	28.5	28.5	28.5	54	14.0	2	7	0	0.00	30.425 
13:10	28.5	28.5	28.5	56	14.8	2	4	270	0.00	30.425 
13:15	28.8	28.8	28.8	57	15.5	2	5	292	0.00	30.430 
13:20	28.8	28.8	28.8	52	13.4	1	4	270	0.00	30.430 
13:25	29.3	29.3	29.3	56	15.6	2	5	270	0.00	30.430 
13:30	29.8	29.8	29.8	53	14.8	3	7	270	0.00	30.437 
13:35	29.7	29.7	29.7	54	15.1	3	10	270	0.00	30.437 
13:40	29.4	29.4	29.4	55	15.3	2	7	315	0.00	30.437 
13:45	29.1	29.1	29.1	54	14.6	2	4	338	0.00	30.443 
13:50	29.1	29.1	29.1	55	15.0	2	5	338	0.00	30.443 
13:55	29.1	29.1	29.1	55	15.0	2	5	270	0.00	30.443 
14:00	29.0	29.0	29.0	58	16.1	2	5	270	0.00	30.444 
14:05	29.0	29.0	29.0	57	15.7	2	4	338	0.00	30.444 
14:10	29.1	29.1	29.1	54	14.6	3	9	270	0.00	30.444 
14:15	29.3	29.3	29.3	55	15.2	2	5	270	0.00	30.444 
14:20	29.0	29.0	29.0	56	15.3	2	4	315	0.00	30.444 
14:25	28.7	28.7	28.7	56	15.0	2	6	270	0.00	30.444 
14:30	28.8	28.8	28.8	56	15.1	2	4	270	0.00	30.444 
14:35	28.7	28.7	28.7	55	14.6	2	6	315	0.00	30.444 
14:40	28.5	28.5	28.5	54	14.0	3	10	270	0.00	30.444 
14:45	28.5	28.5	28.5	56	14.8	3	5	270	0.00	30.450 
14:50	28.5	28.5	28.5	55	14.4	2	6	270	0.00	30.450 
14:55	28.7	28.7	28.7	54	14.2	3	6	270	0.00	30.450 
15:00	28.7	28.7	28.7	53	13.8	3	9	315	0.00	30.451 
15:05	28.5	28.5	28.5	52	13.1	3	10	270	0.00	30.451 
15:10	28.8	28.8	28.8	54	14.3	2	5	270	0.00	30.451 
15:15	29.0	29.0	29.0	53	14.0	2	6	270	0.00	30.457 
15:20	28.8	28.8	28.8	53	13.9	2	5	270	0.00	30.457 
15:25	28.7	28.7	28.7	54	14.2	2	5	270	0.00	30.457 
15:30	28.7	28.7	28.7	53	13.8	2	5	315	0.00	30.459 
15:35	28.5	28.5	28.5	54	14.0	2	6	292	0.00	30.459 
15:40	28.4	28.4	28.4	54	13.9	2	5	292	0.00	30.459 
15:45	28.2	28.2	28.2	54	13.7	3	6	270	0.00	30.462 
15:50	28.1	28.1	28.1	54	13.6	3	7	270	0.00	30.462 
15:55	27.9	27.9	27.9	53	13.0	3	7	270	0.00	30.462 
16:00	28.1	28.1	28.1	54	13.6	2	7	270	0.00	30.469 
16:05	28.2	28.2	28.2	55	14.1	2	6	292	0.00	30.469 
16:10	28.1	28.1	28.1	56	14.5	2	7	338	0.00	30.469 
16:15	27.8	27.8	27.8	58	15.0	3	9	270	0.00	30.472 
16:20	27.5	27.5	27.5	59	15.1	3	7	270	0.00	30.472 
16:25	27.5	27.5	27.5	58	14.7	3	5	270	0.00	30.472 
16:30	27.6	27.6	27.6	58	14.8	2	4	270	0.00	30.469 
16:35	27.8	27.8	27.8	55	13.8	3	6	270	0.00	30.469 
16:40	27.6	27.6	27.6	57	14.4	2	4	292	0.00	30.469 
16:45	27.5	27.5	27.5	60	15.5	2	5	270	0.00	30.470 
16:50	27.2	27.2	27.2	56	13.6	3	6	270	0.00	30.470 
16:55	27.2	27.2	27.2	56	13.6	2	4	292	0.00	30.470 
17:00	27.3	27.3	27.3	57	14.1	2	6	270	0.00	30.479 
17:05	27.3	27.3	27.3	58	14.5	2	9	292	0.00	30.479 
17:10	27.2	27.2	27.2	56	13.6	2	6	315	0.00	30.479 
17:15	27.2	27.2	27.2	58	14.4	2	5	270	0.00	30.466 
17:20	27.2	27.2	27.2	57	14.0	2	5	248	0.00	30.466 
17:25	26.9	26.9	26.9	55	12.9	2	5	270	0.00	30.466 
17:30	26.6	26.6	26.6	55	12.6	2	5	315	0.00	30.467 
17:35	26.6	26.6	26.6	55	12.6	2	5	270	0.00	30.467 
17:40	26.4	26.4	26.4	55	12.5	3	7	270	0.00	30.467 
17:45	26.3	26.3	26.3	54	11.9	2	10	270	0.00	30.467 
17:50	26.1	26.1	26.1	55	12.2	3	6	270	0.00	30.467 
17:55	26.0	26.0	26.0	56	12.5	2	5	270	0.00	30.467 
18:00	25.7	25.7	25.7	57	12.6	1	4	248	0.00	30.463 
18:05	25.6	25.6	25.6	56	12.1	2	4	248	0.00	30.463 
18:10	25.4	25.4	25.4	56	11.9	2	5	270	0.00	30.463 
18:15	25.3	25.3	25.3	58	12.6	2	6	270	0.00	30.463 
18:20	25.1	25.1	25.1	58	12.4	2	5	270	0.00	30.463 
18:25	25.1	25.1	25.1	59	12.8	2	5	270	0.00	30.463 
18:30	25.0	25.0	25.0	60	13.1	1	3	270	0.00	30.457 
18:35	24.8	24.8	24.8	59	12.5	1	4	270	0.00	30.457 
18:40	24.7	24.7	24.7	58	12.1	1	4	315	0.00	30.457 
18:45	24.5	24.5	24.5	59	12.3	1	3	315	0.00	30.454 
18:50	24.5	24.5	24.5	57	11.5	2	5	270	0.00	30.454 
18:55	24.4	24.4	24.4	58	11.8	1	4	270	0.00	30.454 
19:00	24.4	24.4	24.4	58	11.8	1	5	315	0.00	30.455 
19:05	24.4	24.4	24.4	57	11.4	2	4	315	0.00	30.455 
19:10	24.4	24.4	24.4	58	11.8	1	3	315	0.00	30.455 
19:15	24.2	24.2	24.2	58	11.6	2	4	292	0.00	30.459 
19:20	24.2	24.2	24.2	59	12.0	1	3	270	0.00	30.459 
19:25	24.2	24.2	24.2	60	12.3	1	3	270	0.00	30.459 
19:30	24.1	24.1	24.1	58	11.5	1	3	270	0.00	30.461 
19:35	24.1	24.1	24.1	59	11.9	1	4	248	0.00	30.461 
19:40	24.1	24.1	24.1	58	11.5	1	4	292	0.00	30.461 
19:45	24.1	24.1	24.1	58	11.5	1	3	292	0.00	30.456 
19:50	24.1	24.1	24.1	58	11.5	1	3	315	0.00	30.456 
19:55	23.9	23.9	23.9	60	12.1	1	4	270	0.00	30.456 
20:00	23.9	23.9	23.9	60	12.1	0	2	270	0.00	30.460 
20:05	23.9	23.9	23.9	60	12.1	1	4	248	0.00	30.460 
20:10	24.1	24.1	24.1	60	12.3	1	3	248	0.00	30.460 
20:15	23.9	23.9	23.9	59	11.7	1	4	292	0.00	30.466 
20:20	23.9	23.9	23.9	59	11.7	1	3	292	0.00	30.466 
20:25	23.9	23.9	23.9	60	12.1	1	3	270	0.00	30.466 
20:30	23.9	23.9	23.9	60	12.1	1	4	270	0.00	30.457 
20:35	23.9	23.9	23.9	61	12.4	0	2	270	0.00	30.457 
20:40	23.9	23.9	23.9	61	12.4	0	2	248	0.00	30.457 
20:45	23.9	23.9	23.9	60	12.1	1	3	248	0.00	30.457 
20:50	23.9	23.9	23.9	60	12.1	1	3	248	0.00	30.457 
20:55	23.8	23.8	23.8	59	11.6	1	3	248	0.00	30.457 
21:00	23.8	23.8	23.8	59	11.6	1	4	248	0.00	30.461 
21:05	23.8	23.8	23.8	59	11.6	1	3	270	0.00	30.461 
21:10	23.8	23.8	23.8	60	12.0	0	2	270	0.00	30.461 
21:15	23.6	23.6	23.6	60	11.8	1	3	270	0.00	30.463 
21:20	23.8	23.8	23.8	59	11.6	2	6	270	0.00	30.463 
21:25	23.8	23.8	23.8	59	11.6	2	3	270	0.00	30.463 
21:30	23.8	23.8	23.8	58	11.2	2	5	270	0.00	30.457 
21:35	23.8	23.8	23.8	60	12.0	1	4	270	0.00	30.457 
21:40	23.8	23.8	23.8	59	11.6	1	3	270	0.00	30.457 
21:45	23.8	23.8	23.8	60	12.0	1	3	248	0.00	30.451 
21:50	23.8	23.8	23.8	59	11.6	1	3	248	0.00	30.451 
21:55	23.9	23.9	23.9	59	11.7	1	3	248	0.00	30.451 
22:00	23.9	23.9	23.9	60	12.1	2	5	248	0.00	30.452 
22:05	23.9	23.9	23.9	60	12.1	1	4	248	0.00	30.452 
22:10	23.9	23.9	23.9	60	12.1	1	4	270	0.00	30.452 
22:15	23.9	23.9	23.9	61	12.4	1	3	338	0.00	30.450 
22:20	23.9	23.9	23.9	61	12.4	1	3	270	0.00	30.450 
22:25	23.9	23.9	23.9	62	12.8	1	3	270	0.00	30.450 
22:30	23.9	23.9	23.9	62	12.8	1	3	270	0.00	30.443 
22:35	23.9	23.9	23.9	63	13.2	1	3	248	0.00	30.443 
22:40	23.9	23.9	23.9	63	13.2	1	3	270	0.00	30.443 
22:45	23.9	23.9	23.9	64	13.5	1	3	338	0.00	30.437 
22:50	24.1	24.1	24.1	64	13.7	1	3	270	0.00	30.437 
22:55	24.1	24.1	24.1	64	13.7	2	5	270	0.00	30.437 
23:00	24.1	24.1	24.1	63	13.4	2	5	270	0.00	30.436 
23:05	24.1	24.1	24.1	62	13.0	2	4	270	0.00	30.436 
23:10	23.9	23.9	23.9	63	13.2	2	4	270	0.00	30.436 
23:15	23.9	23.9	23.9	62	12.8	2	4	270	0.00	30.437 
23:20	23.9	23.9	23.9	62	12.8	2	4	270	0.00	30.437 
23:25	23.9	23.9	23.9	61	12.4	3	14	270	0.00	30.437 
23:30	23.8	18.6	23.8	58	11.2	4	10	270	0.00	30.432 
23:35	23.6	23.6	23.6	58	11.0	3	7	270	0.00	30.432 
23:40	23.6	23.6	23.6	58	11.0	3	5	270	0.00	30.432 
23:45	23.5	23.5	23.5	55	9.7	3	7	270	0.00	30.432 
23:50	23.3	23.3	23.3	57	10.3	3	7	292	0.00	30.432 
23:55	23.3	23.3	23.3	59	11.1	3	10	270	0.00	30.432 

CoCoRaHS
IN-AL-39
A2 Web Hosting
Creative Commons License
GoDaddy
Look for:

loaded 2017-12-13 15:57:42 • last modified 2010-11-18 10:43:29
Privacy PolicyDisclaimer
• wx.awcolley.com is powered by PmWiki v.2002016 •
• all content (unless otherwise noted) © 2017 A W Colley